createdAt,value
2023-03-11T13:15:21.090Z,7.63
2023-03-11T13:18:11.314Z,3.70
2023-03-11T13:20:44.038Z,4.10
2023-03-11T13:23:27.388Z,1.43
2023-03-11T13:25:53.985Z,2.50
2023-03-11T13:28:38.479Z,1.77
2023-03-11T13:31:24.399Z,3.07
2023-03-11T13:34:03.245Z,2.47
2023-03-11T13:36:56.982Z,2.33
2023-03-11T13:40:04.232Z,3.87
2023-03-11T13:42:42.131Z,2.40
2023-03-11T13:45:26.779Z,2.67
2023-03-11T13:47:58.318Z,3.73
2023-03-11T13:50:30.917Z,3.00
2023-03-11T13:53:01.108Z,3.30
2023-03-11T13:55:46.284Z,6.40
2023-03-11T13:58:22.610Z,4.03
2023-03-11T14:00:51.636Z,3.77
2023-03-11T14:03:22.133Z,4.50
2023-03-11T14:05:57.041Z,3.50
2023-03-11T14:08:32.859Z,7.33
2023-03-11T14:11:02.110Z,2.60
2023-03-11T14:13:38.342Z,2.40
2023-03-11T14:16:11.163Z,2.70
2023-03-11T14:18:38.996Z,3.03
2023-03-11T14:21:18.221Z,3.07
2023-03-11T14:23:49.829Z,2.70
2023-03-11T14:26:22.887Z,2.03
2023-03-11T14:28:54.407Z,1.60
2023-03-11T14:31:41.601Z,2.73
2023-03-11T14:34:11.261Z,2.37
2023-03-11T14:37:01.940Z,4.27
2023-03-11T14:39:30.136Z,4.43
2023-03-11T14:42:37.451Z,4.40
2023-03-11T14:45:07.851Z,5.93
2023-03-11T14:47:47.366Z,3.27
2023-03-11T14:50:42.266Z,2.10
2023-03-11T14:53:17.421Z,3.03
2023-03-11T14:55:50.691Z,5.13
2023-03-11T14:58:37.188Z,3.10
2023-03-11T15:01:13.867Z,4.40
2023-03-11T15:04:09.636Z,9.10
2023-03-11T15:06:39.906Z,5.20
2023-03-11T15:09:11.825Z,3.43
2023-03-11T15:11:59.305Z,3.63
2023-03-11T15:14:31.827Z,3.10
2023-03-11T15:17:33.963Z,5.00
2023-03-11T15:20:02.393Z,4.07
2023-03-11T15:22:39.737Z,6.97
2023-03-11T15:25:24.487Z,5.60
2023-03-11T15:27:51.097Z,8.63
2023-03-11T15:30:31.090Z,3.83
2023-03-11T15:32:58.862Z,4.60
2023-03-11T15:35:30.385Z,5.37
2023-03-11T15:38:25.738Z,8.40
2023-03-11T15:41:01.244Z,5.43
2023-03-11T15:43:48.455Z,3.57
2023-03-11T15:46:15.202Z,9.10
2023-03-11T15:48:43.021Z,5.00
2023-03-11T15:51:19.192Z,6.50
2023-03-11T15:53:45.882Z,3.80
2023-03-11T15:56:18.484Z,5.60
2023-03-11T15:58:45.108Z,2.97
2023-03-11T16:01:13.566Z,5.80
2023-03-11T16:03:40.402Z,4.80
2023-03-11T16:06:07.262Z,2.50
2023-03-11T16:08:34.680Z,3.13
2023-03-11T16:11:01.350Z,3.23
2023-03-11T16:13:28.036Z,4.10
2023-03-11T16:15:54.728Z,7.63
2023-03-11T16:18:21.384Z,3.53
2023-03-11T16:20:53.103Z,4.83
2023-03-11T16:23:23.823Z,4.50
2023-03-11T16:25:53.500Z,8.63
2023-03-11T16:28:20.195Z,9.23
2023-03-11T16:30:50.605Z,6.60
2023-03-11T16:33:17.226Z,5.73
2023-03-11T16:35:44.090Z,4.17
2023-03-11T16:38:10.901Z,4.03
2023-03-11T16:40:37.667Z,3.57
2023-03-11T16:43:07.274Z,4.57
2023-03-11T16:45:34.318Z,3.23
2023-03-11T16:48:01.428Z,12.23
2023-03-11T16:50:28.494Z,3.10
2023-03-11T16:52:57.126Z,5.13
2023-03-11T16:55:25.484Z,6.60
2023-03-11T16:57:52.230Z,3.83
2023-03-11T17:00:19.290Z,7.90
2023-03-11T17:02:46.089Z,3.20
2023-03-11T17:05:13.342Z,22.23
2023-03-11T17:07:40.377Z,5.70
2023-03-11T17:10:08.479Z,3.20
2023-03-11T17:12:36.166Z,3.20
2023-03-11T17:15:04.080Z,5.13
2023-03-11T17:17:31.030Z,5.33
2023-03-11T17:19:57.652Z,4.83
2023-03-11T17:22:24.318Z,7.00
2023-03-11T17:24:50.942Z,10.40
2023-03-11T17:27:17.691Z,5.77
2023-03-11T17:29:44.520Z,4.93
2023-03-11T17:32:16.787Z,8.60
2023-03-11T17:34:43.769Z,7.27
2023-03-11T17:37:10.380Z,2.10
2023-03-11T17:39:36.977Z,3.70
2023-03-11T17:42:03.728Z,5.20
2023-03-11T17:44:44.570Z,4.67
2023-03-11T17:47:20.049Z,7.33
2023-03-11T17:49:47.706Z,5.07
2023-03-11T17:52:14.408Z,4.50
2023-03-11T17:54:41.174Z,10.40
2023-03-11T17:57:07.921Z,16.00
2023-03-11T17:59:34.697Z,11.50
2023-03-11T18:02:01.460Z,5.37
2023-03-11T18:04:28.430Z,7.33
2023-03-11T18:06:55.552Z,7.27
2023-03-11T18:09:22.534Z,10.07
2023-03-11T18:11:49.259Z,11.97
2023-03-11T18:14:15.899Z,9.27
2023-03-11T18:16:42.631Z,10.40
2023-03-11T18:19:09.283Z,10.07
2023-03-11T18:21:35.948Z,9.13
2023-03-11T18:24:02.633Z,8.53
2023-03-11T18:26:30.133Z,10.70
2023-03-11T18:28:58.134Z,12.20
2023-03-11T18:31:26.615Z,7.67
2023-03-11T18:33:56.197Z,10.20
2023-03-11T18:36:28.671Z,9.33
2023-03-11T18:38:57.790Z,10.53
2023-03-11T18:41:26.190Z,13.00
2023-03-11T18:43:57.376Z,21.97
2023-03-11T18:46:25.656Z,15.83
2023-03-11T18:48:57.597Z,16.10
2023-03-11T18:51:25.628Z,11.17
2023-03-11T18:53:52.410Z,16.50
2023-03-11T18:56:19.414Z,18.00
2023-03-11T18:58:46.718Z,13.67
2023-03-11T19:01:16.551Z,19.27
2023-03-11T19:03:45.265Z,17.37
2023-03-11T19:06:13.306Z,14.13
2023-03-11T19:08:40.529Z,16.20
2023-03-11T19:11:10.203Z,13.43
2023-03-11T19:13:46.544Z,14.70
2023-03-11T19:16:14.342Z,12.40
2023-03-11T19:18:41.251Z,13.20
2023-03-11T19:21:10.411Z,13.10
2023-03-11T19:23:37.316Z,10.97
2023-03-11T19:26:04.158Z,12.73
2023-03-11T19:28:30.792Z,12.83
2023-03-11T19:30:58.512Z,12.73
2023-03-11T19:33:25.730Z,16.50
2023-03-11T19:35:55.737Z,16.13
2023-03-11T19:38:23.440Z,12.07
2023-03-11T19:40:54.764Z,15.67
2023-03-11T19:43:22.046Z,19.17
2023-03-11T19:45:50.467Z,13.10
2023-03-11T19:48:17.369Z,13.10
2023-03-11T19:50:44.560Z,14.33
2023-03-11T19:53:11.336Z,13.80
2023-03-11T19:55:42.124Z,18.70
2023-03-11T19:58:08.807Z,17.30
2023-03-11T20:00:35.433Z,12.57
2023-03-11T20:03:02.716Z,16.80
2023-03-11T20:05:29.527Z,14.57
2023-03-11T20:07:56.152Z,19.63
2023-03-11T20:10:22.820Z,29.43
2023-03-11T20:13:01.400Z,15.47
2023-03-11T20:15:29.213Z,15.70
2023-03-11T20:17:55.930Z,16.40
2023-03-11T20:20:23.017Z,46.53
2023-03-11T20:22:49.660Z,14.53
2023-03-11T20:25:16.379Z,12.43
2023-03-11T20:27:43.220Z,11.97
2023-03-11T20:30:10.481Z,13.30
2023-03-11T20:32:37.136Z,10.60
2023-03-11T20:35:04.555Z,18.17
2023-03-11T20:37:31.583Z,12.43
2023-03-11T20:39:58.362Z,13.30
2023-03-11T20:42:25.097Z,15.97
2023-03-11T20:44:53.103Z,16.30
2023-03-11T20:47:20.490Z,18.60
2023-03-11T20:49:47.276Z,15.70
2023-03-11T20:52:14.031Z,16.53
2023-03-11T20:54:40.772Z,20.70
2023-03-11T20:57:07.912Z,13.90
2023-03-11T20:59:34.545Z,16.83
2023-03-11T21:02:01.537Z,10.10
2023-03-11T21:04:28.265Z,14.60
2023-03-11T21:06:57.300Z,10.60
2023-03-11T21:09:24.681Z,10.60
2023-03-11T21:11:51.495Z,11.23
2023-03-11T21:14:18.820Z,12.10
2023-03-11T21:16:46.185Z,10.07
2023-03-11T21:19:13.838Z,8.50
2023-03-11T21:21:40.874Z,10.07
2023-03-11T21:24:08.246Z,9.40
2023-03-11T21:26:35.245Z,7.60
2023-03-11T21:29:02.358Z,6.97
2023-03-11T21:31:30.049Z,10.47
2023-03-11T21:33:58.762Z,5.50
2023-03-11T21:36:25.742Z,15.37
2023-03-11T21:38:52.608Z,11.93
2023-03-11T21:41:23.810Z,10.77
2023-03-11T21:43:51.519Z,11.07
2023-03-11T21:46:21.186Z,10.00
2023-03-11T21:48:48.464Z,11.23
2023-03-11T21:51:17.075Z,11.13
2023-03-11T21:53:44.336Z,12.10
2023-03-11T21:56:11.465Z,10.90
2023-03-11T21:58:38.161Z,8.50
2023-03-11T22:01:05.301Z,9.50
2023-03-11T22:03:35.588Z,11.03
2023-03-11T22:06:08.155Z,8.90
2023-03-11T22:08:35.752Z,12.67
2023-03-11T22:11:03.252Z,11.03
2023-03-11T22:13:30.222Z,14.17
2023-03-11T22:15:57.140Z,12.47
2023-03-11T22:18:23.956Z,9.07
2023-03-11T22:20:50.798Z,9.63
2023-03-11T22:23:17.483Z,9.17
2023-03-11T22:25:44.656Z,11.57
2023-03-11T22:28:12.912Z,13.43
2023-03-11T22:30:39.742Z,14.17
2023-03-11T22:33:07.436Z,14.87
2023-03-11T22:35:34.324Z,14.47
2023-03-11T22:38:01.047Z,10.47
2023-03-11T22:40:29.278Z,11.90
2023-03-11T22:42:56.048Z,10.33
2023-03-11T22:45:22.909Z,9.60
2023-03-11T22:47:50.794Z,11.30
2023-03-11T22:50:18.218Z,14.40
2023-03-11T22:52:45.238Z,12.60
2023-03-11T22:55:12.024Z,15.53
2023-03-11T22:57:38.966Z,18.20
2023-03-11T23:00:19.276Z,21.57
2023-03-11T23:02:47.500Z,20.63
2023-03-11T23:05:15.737Z,15.00
2023-03-11T23:07:42.708Z,19.17
2023-03-11T23:10:11.505Z,13.90
2023-03-11T23:12:38.874Z,11.20
2023-03-11T23:15:12.993Z,18.40
2023-03-11T23:17:39.792Z,19.90
2023-03-11T23:20:07.773Z,29.80
2023-03-11T23:22:38.824Z,24.27
2023-03-11T23:25:08.403Z,19.00
2023-03-11T23:27:35.127Z,16.57
2023-03-11T23:30:01.830Z,13.80
2023-03-11T23:32:28.825Z,18.00
2023-03-11T23:34:55.568Z,22.70
2023-03-11T23:37:22.163Z,23.57
2023-03-11T23:39:48.798Z,19.90
2023-03-11T23:42:25.498Z,20.33
2023-03-11T23:44:53.762Z,17.00
2023-03-11T23:47:20.589Z,13.03
2023-03-11T23:49:47.265Z,17.37
2023-03-11T23:52:13.927Z,16.60
2023-03-11T23:54:40.617Z,15.70
2023-03-11T23:57:07.345Z,16.70
2023-03-11T23:59:34.121Z,19.00
